createdAt,value
2022-12-13T00:01:32.751Z,5.20
2022-12-13T00:04:37.196Z,5.85
2022-12-13T00:07:42.072Z,6.05
2022-12-13T00:10:46.662Z,5.40
2022-12-13T00:13:51.629Z,5.28
2022-12-13T00:16:56.461Z,5.13
2022-12-13T00:20:01.323Z,5.60
2022-12-13T00:23:06.047Z,5.18
2022-12-13T00:26:15.274Z,4.82
2022-12-13T00:29:20.177Z,5.20
2022-12-13T00:32:24.743Z,5.15
2022-12-13T00:35:29.253Z,4.82
2022-12-13T00:38:35.749Z,5.10
2022-12-13T00:41:41.195Z,5.95
2022-12-13T00:44:45.881Z,6.20
2022-12-13T00:47:50.412Z,6.43
2022-12-13T00:50:55.624Z,5.72
2022-12-13T00:54:01.329Z,6.13
2022-12-13T00:57:06.244Z,5.97
2022-12-13T01:00:12.101Z,5.85
2022-12-13T01:03:25.487Z,6.75
2022-12-13T01:06:44.731Z,5.82
2022-12-13T01:09:49.217Z,5.47
2022-12-13T01:12:55.230Z,6.32
2022-12-13T01:16:04.330Z,6.25
2022-12-13T01:19:08.900Z,5.60
2022-12-13T01:22:13.711Z,5.90
2022-12-13T01:25:18.468Z,6.28
2022-12-13T01:28:23.985Z,6.38
2022-12-13T01:31:28.909Z,5.78
2022-12-13T01:34:34.344Z,5.75
2022-12-13T01:37:39.037Z,5.68
2022-12-13T01:40:51.443Z,6.40
2022-12-13T01:44:07.514Z,5.78
2022-12-13T01:47:13.379Z,5.82
2022-12-13T01:50:25.100Z,6.03
2022-12-13T01:53:34.832Z,5.63
2022-12-13T01:56:44.851Z,5.85
2022-12-13T01:59:54.373Z,6.13
2022-12-13T02:02:59.961Z,6.18
2022-12-13T02:06:32.871Z,5.10
2022-12-13T02:09:38.158Z,5.53
2022-12-13T02:12:43.894Z,6.32
2022-12-13T02:16:42.001Z,5.90
2022-12-13T02:20:21.688Z,5.63
2022-12-13T02:23:51.206Z,6.38
2022-12-13T02:27:09.183Z,5.95
2022-12-13T02:30:49.013Z,5.65
2022-12-13T02:34:06.281Z,5.97
2022-12-13T02:38:00.858Z,6.75
2022-12-13T02:41:23.321Z,5.65
2022-12-13T02:44:35.727Z,6.57
2022-12-13T02:47:44.364Z,5.65
2022-12-13T02:50:51.225Z,5.80
2022-12-13T02:53:55.840Z,6.88
2022-12-13T02:57:00.868Z,6.05
2022-12-13T03:00:09.294Z,6.13
2022-12-13T03:03:38.818Z,6.22
2022-12-13T03:07:10.830Z,6.78
2022-12-13T03:10:29.750Z,6.60
2022-12-13T03:13:56.811Z,7.20
2022-12-13T03:17:05.521Z,6.43
2022-12-13T03:20:22.347Z,6.47
2022-12-13T03:23:28.529Z,7.20
2022-12-13T03:26:33.159Z,6.60
2022-12-13T03:29:37.992Z,6.28
2022-12-13T03:32:42.528Z,6.40
2022-12-13T03:35:47.554Z,6.85
2022-12-13T03:38:54.301Z,5.90
2022-12-13T03:41:58.831Z,6.47
2022-12-13T03:45:03.773Z,6.55
2022-12-13T03:48:08.534Z,6.78
2022-12-13T03:51:13.126Z,6.68
2022-12-13T03:54:17.429Z,7.30
2022-12-13T03:57:21.864Z,7.43
2022-12-13T04:00:26.483Z,6.82
2022-12-13T04:03:30.898Z,6.63
2022-12-13T04:06:35.392Z,6.63
2022-12-13T04:09:40.104Z,6.25
2022-12-13T04:13:03.333Z,6.07
2022-12-13T04:16:08.236Z,6.95
2022-12-13T04:19:23.725Z,6.50
2022-12-13T04:22:36.696Z,7.45
2022-12-13T04:25:44.274Z,6.70
2022-12-13T04:28:54.305Z,6.32
2022-12-13T04:31:59.174Z,6.20
2022-12-13T04:35:04.052Z,5.95
2022-12-13T04:38:08.638Z,6.80
2022-12-13T04:41:18.789Z,6.78
2022-12-13T04:44:27.614Z,7.57
2022-12-13T04:47:33.860Z,6.18
2022-12-13T04:50:38.416Z,6.20
2022-12-13T04:53:42.643Z,6.35
2022-12-13T04:56:47.272Z,6.15
2022-12-13T04:59:51.781Z,6.65
2022-12-13T05:02:56.613Z,6.45
2022-12-13T05:06:07.058Z,6.35
2022-12-13T05:09:31.912Z,6.25
2022-12-13T05:12:36.679Z,6.25
2022-12-13T05:15:41.422Z,6.78
2022-12-13T05:18:46.116Z,6.93
2022-12-13T05:21:50.933Z,6.32
2022-12-13T05:24:55.598Z,5.93
2022-12-13T05:28:00.662Z,6.22
2022-12-13T05:31:23.473Z,6.72
2022-12-13T05:34:28.609Z,5.70
2022-12-13T05:37:34.718Z,5.75
2022-12-13T05:40:39.140Z,6.50
2022-12-13T05:43:43.994Z,5.78
2022-12-13T05:46:48.622Z,6.20
2022-12-13T05:49:52.978Z,7.05
2022-12-13T05:52:57.476Z,6.40
2022-12-13T05:56:02.986Z,6.20
2022-12-13T05:59:07.857Z,6.55
2022-12-13T06:02:15.610Z,6.65
2022-12-13T06:05:24.531Z,7.30
2022-12-13T06:08:30.267Z,6.32
2022-12-13T06:11:34.547Z,6.97
2022-12-13T06:14:48.056Z,6.20
2022-12-13T06:17:52.435Z,6.90
2022-12-13T06:21:03.411Z,6.80
2022-12-13T06:24:08.856Z,6.90
2022-12-13T06:27:14.080Z,6.05
2022-12-13T06:30:18.686Z,6.60
2022-12-13T06:33:23.869Z,6.28
2022-12-13T06:36:28.674Z,6.80
2022-12-13T06:39:35.163Z,6.68
2022-12-13T06:42:39.912Z,6.95
2022-12-13T06:45:44.594Z,6.38
2022-12-13T06:48:49.916Z,6.47
2022-12-13T06:51:55.047Z,6.72
2022-12-13T06:55:00.054Z,7.28
2022-12-13T06:58:04.734Z,6.00
2022-12-13T07:01:15.012Z,6.65
2022-12-13T07:04:31.131Z,6.82
2022-12-13T07:07:36.151Z,7.78
2022-12-13T07:10:40.677Z,6.32
2022-12-13T07:13:46.259Z,6.70
2022-12-13T07:16:51.107Z,7.22
2022-12-13T07:19:55.824Z,6.75
2022-12-13T07:23:06.212Z,6.75
2022-12-13T07:26:10.855Z,7.35
2022-12-13T07:29:22.805Z,6.55
2022-12-13T07:32:28.128Z,7.28
2022-12-13T07:35:37.457Z,6.88
2022-12-13T07:38:43.655Z,5.95
2022-12-13T07:41:53.044Z,6.60
2022-12-13T07:44:57.872Z,7.35
2022-12-13T07:48:06.776Z,7.18
2022-12-13T07:51:12.815Z,6.82
2022-12-13T07:54:17.901Z,6.68
2022-12-13T07:57:22.352Z,6.97
2022-12-13T08:00:26.806Z,6.80
2022-12-13T08:03:31.481Z,6.45
2022-12-13T08:06:38.108Z,7.28
2022-12-13T08:09:45.606Z,7.03
2022-12-13T08:12:54.425Z,6.93
2022-12-13T08:16:01.125Z,7.13
2022-12-13T08:19:05.752Z,6.80
2022-12-13T08:22:14.487Z,6.65
2022-12-13T08:25:28.320Z,7.68
2022-12-13T08:28:34.448Z,6.85
2022-12-13T08:31:39.710Z,6.95
2022-12-13T08:34:45.512Z,6.53
2022-12-13T08:37:50.368Z,7.20
2022-12-13T08:40:59.214Z,6.78
2022-12-13T08:44:03.798Z,7.47
2022-12-13T08:47:09.520Z,9.82
2022-12-13T08:50:14.169Z,13.20
2022-12-13T08:53:18.930Z,14.77
2022-12-13T08:56:34.180Z,14.02
2022-12-13T08:59:38.958Z,16.55
2022-12-13T09:02:44.612Z,16.27
2022-12-13T09:05:49.684Z,16.33
2022-12-13T09:08:54.744Z,15.38
2022-12-13T09:12:00.167Z,14.63
2022-12-13T09:15:05.543Z,17.58
2022-12-13T09:18:36.304Z,17.77
2022-12-13T09:21:43.089Z,16.90
2022-12-13T09:24:50.232Z,16.67
2022-12-13T09:27:54.814Z,15.55
2022-12-13T09:30:59.271Z,17.38
2022-12-13T09:34:04.103Z,16.70
2022-12-13T09:37:09.170Z,18.10
2022-12-13T09:40:25.731Z,18.70
2022-12-13T09:43:42.473Z,16.10
2022-12-13T09:46:50.732Z,16.83
2022-12-13T09:49:55.848Z,16.63
2022-12-13T09:53:11.972Z,17.48
2022-12-13T09:56:27.252Z,18.30
2022-12-13T09:59:35.357Z,16.58
2022-12-13T10:03:00.703Z,17.42
2022-12-13T10:06:22.785Z,18.30
2022-12-13T10:09:28.117Z,17.92
2022-12-13T10:12:35.707Z,17.52
2022-12-13T10:15:45.001Z,17.48
2022-12-13T10:18:49.558Z,19.30
2022-12-13T10:21:54.364Z,19.02
2022-12-13T10:25:07.669Z,19.15
2022-12-13T10:28:12.540Z,17.83
2022-12-13T10:31:20.866Z,20.35
2022-12-13T10:34:29.300Z,19.52
2022-12-13T10:37:34.038Z,20.63
2022-12-13T10:40:45.743Z,21.50
2022-12-13T10:44:19.291Z,19.17
2022-12-13T10:47:26.022Z,18.30
2022-12-13T10:50:31.922Z,19.75
2022-12-13T10:53:48.164Z,20.00
2022-12-13T10:57:00.191Z,21.20
2022-12-13T11:00:37.935Z,20.10
2022-12-13T11:03:42.912Z,18.42
2022-12-13T11:06:48.869Z,19.35
2022-12-13T11:09:53.409Z,18.90
2022-12-13T11:13:05.056Z,21.05
2022-12-13T11:16:30.602Z,17.50
2022-12-13T11:19:45.677Z,20.70
2022-12-13T11:22:58.977Z,19.70
2022-12-13T11:26:25.187Z,19.02
2022-12-13T11:29:49.200Z,18.92
2022-12-13T11:33:27.855Z,20.33
2022-12-13T11:37:11.517Z,17.58
2022-12-13T11:40:24.660Z,21.52
2022-12-13T11:43:36.033Z,18.55
2022-12-13T11:50:46.712Z,21.67
2022-12-13T11:53:57.311Z,20.85
2022-12-13T11:57:07.941Z,21.25
2022-12-13T12:00:37.100Z,21.60
2022-12-13T12:04:19.820Z,20.58
2022-12-13T12:08:12.741Z,19.08
2022-12-13T12:11:38.110Z,18.67
2022-12-13T12:15:04.975Z,20.55
2022-12-13T12:18:16.606Z,17.30
2022-12-13T12:21:49.503Z,18.08
2022-12-13T12:24:57.494Z,16.25
2022-12-13T12:29:01.262Z,20.05
2022-12-13T12:32:46.743Z,19.02
2022-12-13T12:36:19.477Z,20.15
2022-12-13T12:40:07.552Z,19.90
2022-12-13T12:43:33.822Z,19.23
2022-12-13T12:47:32.534Z,17.73
2022-12-13T12:51:07.263Z,18.42
2022-12-13T12:54:32.497Z,17.67
2022-12-13T12:57:44.560Z,17.48
2022-12-13T13:01:36.118Z,18.10
2022-12-13T13:04:55.956Z,14.90
2022-12-13T13:08:18.487Z,18.90
2022-12-13T13:11:26.005Z,15.35
2022-12-13T13:14:39.952Z,19.95
2022-12-13T13:17:46.560Z,19.88
2022-12-13T13:21:23.311Z,17.65
2022-12-13T13:24:32.920Z,18.38
2022-12-13T13:27:46.305Z,17.27
2022-12-13T13:31:09.152Z,17.90
2022-12-13T13:34:26.261Z,19.83
2022-12-13T13:37:48.433Z,17.40
2022-12-13T13:40:53.514Z,19.17
2022-12-13T13:44:01.227Z,16.63
2022-12-13T13:47:17.274Z,17.27
2022-12-13T13:50:56.312Z,18.38
2022-12-13T13:54:25.311Z,14.55
2022-12-13T13:58:10.717Z,15.10
2022-12-13T14:01:44.580Z,17.02
2022-12-13T14:05:18.887Z,15.38
2022-12-13T14:08:56.346Z,15.07
2022-12-13T14:12:46.494Z,15.70
2022-12-13T14:16:34.417Z,18.70
2022-12-13T14:20:17.858Z,18.45
2022-12-13T14:23:44.475Z,16.77
2022-12-13T14:27:19.377Z,19.10
2022-12-13T14:30:29.026Z,18.35
2022-12-13T14:33:34.050Z,19.08
2022-12-13T14:36:39.141Z,17.20
2022-12-13T14:39:47.913Z,16.92
2022-12-13T14:42:54.977Z,18.77
2022-12-13T14:46:07.832Z,18.70
2022-12-13T14:49:13.046Z,18.75
2022-12-13T14:52:33.448Z,18.15
2022-12-13T14:55:38.264Z,20.13
2022-12-13T14:59:01.682Z,18.80
2022-12-13T15:02:06.563Z,16.73
2022-12-13T15:05:28.982Z,16.00
2022-12-13T15:08:36.598Z,18.15
2022-12-13T15:11:44.140Z,18.05
2022-12-13T15:14:55.771Z,19.45
2022-12-13T15:18:08.154Z,20.10
2022-12-13T15:21:24.970Z,18.75
2022-12-13T15:24:46.994Z,19.92
2022-12-13T15:28:05.767Z,19.83
2022-12-13T15:31:11.054Z,19.05
2022-12-13T15:34:30.323Z,17.35
2022-12-13T15:37:35.920Z,17.95
2022-12-13T15:40:47.736Z,17.10
2022-12-13T15:43:57.862Z,18.35
2022-12-13T15:47:08.571Z,16.92
2022-12-13T15:50:37.281Z,18.75
2022-12-13T15:54:10.842Z,18.38
2022-12-13T15:57:23.473Z,18.90
2022-12-13T16:00:32.504Z,20.17
2022-12-13T16:03:45.194Z,20.63
2022-12-13T16:06:58.267Z,20.52
2022-12-13T16:10:03.342Z,19.30
2022-12-13T16:13:08.353Z,19.17
2022-12-13T16:16:31.212Z,20.35
2022-12-13T16:19:35.716Z,17.85
2022-12-13T16:22:40.242Z,18.23
2022-12-13T16:25:45.329Z,19.02
2022-12-13T16:28:50.612Z,18.35
2022-12-13T16:32:01.478Z,18.67
2022-12-13T16:35:12.886Z,18.45
2022-12-13T16:38:25.804Z,19.65
2022-12-13T16:41:37.139Z,19.80
2022-12-13T16:44:42.074Z,18.88
2022-12-13T16:47:49.467Z,19.52
2022-12-13T16:50:57.925Z,18.85
2022-12-13T16:54:03.388Z,22.33
2022-12-13T16:57:09.539Z,21.55
2022-12-13T17:00:14.712Z,19.73
2022-12-13T17:03:19.326Z,16.63
2022-12-13T17:06:25.326Z,17.52
2022-12-13T17:09:34.007Z,18.88
2022-12-13T17:12:38.994Z,20.20
2022-12-13T17:15:43.823Z,18.05
2022-12-13T17:18:49.845Z,19.00
2022-12-13T17:21:54.857Z,19.10
2022-12-13T17:24:59.736Z,20.55
2022-12-13T17:28:07.440Z,21.55
2022-12-13T17:31:13.624Z,20.58
2022-12-13T17:34:18.992Z,18.42
2022-12-13T17:37:23.986Z,20.45
2022-12-13T17:40:28.721Z,20.35
2022-12-13T17:43:35.191Z,20.58
2022-12-13T17:46:40.410Z,20.90
2022-12-13T17:49:45.083Z,20.85
2022-12-13T17:52:49.846Z,20.25
2022-12-13T17:55:56.931Z,18.83
2022-12-13T17:59:01.528Z,19.70
2022-12-13T18:02:09.464Z,20.80
2022-12-13T18:05:17.829Z,21.63
2022-12-13T18:08:22.800Z,21.73
2022-12-13T18:11:33.455Z,17.88
2022-12-13T18:14:39.219Z,21.23
2022-12-13T18:18:10.090Z,17.35
2022-12-13T18:21:12.477Z,17.38
2022-12-13T18:24:17.251Z,16.83
2022-12-13T18:27:22.485Z,19.77
2022-12-13T18:30:28.170Z,17.67
2022-12-13T18:33:34.342Z,17.23
2022-12-13T18:36:41.981Z,18.48
2022-12-13T18:39:54.508Z,17.77
2022-12-13T18:42:59.773Z,18.75
2022-12-13T18:46:05.843Z,17.60
2022-12-13T18:49:11.488Z,20.10
2022-12-13T18:52:16.355Z,21.10
2022-12-13T18:55:21.343Z,21.00
2022-12-13T18:58:26.306Z,19.20
2022-12-13T19:01:31.306Z,21.98
2022-12-13T19:04:36.347Z,20.52
2022-12-13T19:07:41.093Z,18.27
2022-12-13T19:10:47.705Z,19.80
2022-12-13T19:13:52.917Z,19.45
2022-12-13T19:16:57.763Z,21.02
2022-12-13T19:20:04.202Z,20.65
2022-12-13T19:23:08.693Z,19.55
2022-12-13T19:26:14.785Z,20.05
2022-12-13T19:29:20.976Z,18.73
2022-12-13T19:32:25.867Z,18.80
2022-12-13T19:35:30.961Z,19.40
2022-12-13T19:38:35.897Z,18.00
2022-12-13T19:41:40.958Z,19.92
2022-12-13T19:44:45.752Z,18.17
2022-12-13T19:47:50.679Z,18.13
2022-12-13T19:51:04.446Z,17.15
2022-12-13T19:54:10.680Z,19.30
2022-12-13T19:57:15.163Z,18.40
2022-12-13T20:00:20.207Z,14.95
2022-12-13T20:03:25.157Z,17.80
2022-12-13T20:06:30.412Z,17.73
2022-12-13T20:09:35.608Z,19.75
2022-12-13T20:12:41.150Z,17.13
2022-12-13T20:15:48.915Z,16.63
2022-12-13T20:18:59.522Z,16.67
2022-12-13T20:22:04.537Z,16.60
2022-12-13T20:25:09.540Z,16.92
2022-12-13T20:28:16.324Z,17.45
2022-12-13T20:31:24.794Z,15.63
2022-12-13T20:34:29.520Z,16.92
2022-12-13T20:37:34.350Z,16.88
2022-12-13T20:40:39.280Z,16.13
2022-12-13T20:43:44.527Z,17.08
2022-12-13T20:46:53.825Z,17.70
2022-12-13T20:49:58.771Z,18.27
2022-12-13T20:53:03.595Z,20.33
2022-12-13T20:56:12.943Z,21.80
2022-12-13T20:59:17.531Z,18.58
2022-12-13T21:02:22.510Z,20.42
2022-12-13T21:05:27.392Z,19.20
2022-12-13T21:08:51.270Z,20.50
2022-12-13T21:11:56.411Z,19.48
2022-12-13T21:15:02.671Z,17.98
2022-12-13T21:18:07.464Z,17.27
2022-12-13T21:21:12.512Z,17.88
2022-12-13T21:24:19.527Z,18.42
2022-12-13T21:27:23.868Z,17.88
2022-12-13T21:30:28.658Z,16.90
2022-12-13T21:33:36.774Z,16.75
2022-12-13T21:36:44.624Z,18.30
2022-12-13T21:39:49.255Z,17.92
2022-12-13T21:42:54.471Z,16.55
2022-12-13T21:45:59.680Z,16.88
2022-12-13T21:49:05.690Z,17.02
2022-12-13T21:52:10.725Z,16.23
2022-12-13T21:55:38.499Z,17.30
2022-12-13T21:58:58.355Z,16.80
2022-12-13T22:02:16.372Z,13.98
2022-12-13T22:05:22.021Z,13.65
2022-12-13T22:08:27.165Z,14.45
2022-12-13T22:11:32.366Z,14.50
2022-12-13T22:14:37.992Z,15.38
2022-12-13T22:17:43.371Z,15.23
2022-12-13T22:20:57.057Z,15.80
2022-12-13T22:24:01.927Z,15.18
2022-12-13T22:27:07.112Z,14.95
2022-12-13T22:30:12.406Z,15.45
2022-12-13T22:33:17.200Z,12.10
2022-12-13T22:36:22.196Z,12.57
2022-12-13T22:39:27.078Z,12.35
2022-12-13T22:42:32.548Z,14.88
2022-12-13T22:45:37.521Z,14.55
2022-12-13T22:48:42.860Z,13.43
2022-12-13T22:51:47.545Z,13.38
2022-12-13T22:54:52.356Z,13.43
2022-12-13T22:57:57.314Z,13.82
2022-12-13T23:01:19.515Z,13.50
2022-12-13T23:04:25.034Z,13.55
2022-12-13T23:07:29.969Z,10.95
2022-12-13T23:10:53.620Z,12.57
2022-12-13T23:14:01.560Z,11.73
2022-12-13T23:17:06.793Z,13.13
2022-12-13T23:20:11.954Z,12.70
2022-12-13T23:23:16.852Z,12.50
2022-12-13T23:26:24.445Z,13.57
2022-12-13T23:29:29.004Z,12.23
2022-12-13T23:32:33.672Z,11.40
2022-12-13T23:35:38.188Z,11.35
2022-12-13T23:38:43.180Z,11.15
2022-12-13T23:41:47.821Z,10.50
2022-12-13T23:44:52.593Z,10.35
2022-12-13T23:47:57.388Z,12.02
2022-12-13T23:51:05.108Z,10.85
2022-12-13T23:54:16.184Z,10.35
2022-12-13T23:57:21.019Z,11.05
